sensor_id;sensor_type;location;lat;lon;timestamp;temperature;humidity
21950;DHT22;11139;51.284;7.226;2023-07-28T00:01:47;17.20;99.90
21950;DHT22;11139;51.284;7.226;2023-07-28T00:04:12;17.20;99.90
21950;DHT22;11139;51.284;7.226;2023-07-28T00:06:37;17.20;99.90
21950;DHT22;11139;51.284;7.226;2023-07-28T00:09:03;17.20;99.90
21950;DHT22;11139;51.284;7.226;2023-07-28T00:11:28;17.20;99.90
21950;DHT22;11139;51.284;7.226;2023-07-28T00:13:54;17.20;99.90
21950;DHT22;11139;51.284;7.226;2023-07-28T00:16:19;17.20;99.90
21950;DHT22;11139;51.284;7.226;2023-07-28T00:18:45;17.20;99.90
21950;DHT22;11139;51.284;7.226;2023-07-28T00:21:10;17.20;99.90
21950;DHT22;11139;51.284;7.226;2023-07-28T00:23:36;17.20;99.90
21950;DHT22;11139;51.284;7.226;2023-07-28T00:26:01;17.20;99.90
21950;DHT22;11139;51.284;7.226;2023-07-28T00:28:27;17.20;99.90
21950;DHT22;11139;51.284;7.226;2023-07-28T00:30:52;17.20;99.90
21950;DHT22;11139;51.284;7.226;2023-07-28T00:33:18;17.20;99.90
21950;DHT22;11139;51.284;7.226;2023-07-28T00:35:44;17.20;99.90
21950;DHT22;11139;51.284;7.226;2023-07-28T00:38:09;17.20;99.90
21950;DHT22;11139;51.284;7.226;2023-07-28T00:40:35;17.20;99.90
21950;DHT22;11139;51.284;7.226;2023-07-28T00:43:01;17.20;99.90
21950;DHT22;11139;51.284;7.226;2023-07-28T00:45:26;17.20;99.90
21950;DHT22;11139;51.284;7.226;2023-07-28T00:47:52;17.20;99.90
21950;DHT22;11139;51.284;7.226;2023-07-28T00:50:18;17.20;99.90
21950;DHT22;11139;51.284;7.226;2023-07-28T00:52:43;17.20;99.90
21950;DHT22;11139;51.284;7.226;2023-07-28T00:55:09;17.20;99.90
21950;DHT22;11139;51.284;7.226;2023-07-28T00:57:34;17.20;99.90
21950;DHT22;11139;51.284;7.226;2023-07-28T01:00:00;17.20;99.90
21950;DHT22;11139;51.284;7.226;2023-07-28T01:02:26;17.20;99.90
21950;DHT22;11139;51.284;7.226;2023-07-28T01:04:51;17.20;99.90
21950;DHT22;11139;51.284;7.226;2023-07-28T01:07:21;17.20;99.90
21950;DHT22;11139;51.284;7.226;2023-07-28T01:12:20;17.20;99.90
21950;DHT22;11139;51.284;7.226;2023-07-28T01:14:46;17.20;99.90
21950;DHT22;11139;51.284;7.226;2023-07-28T01:17:11;17.20;99.90
21950;DHT22;11139;51.284;7.226;2023-07-28T01:19:37;17.10;99.90
21950;DHT22;11139;51.284;7.226;2023-07-28T01:27:41;17.10;99.90
21950;DHT22;11139;51.284;7.226;2023-07-28T01:30:08;17.10;99.90
21950;DHT22;11139;51.284;7.226;2023-07-28T01:32:34;17.10;99.90
21950;DHT22;11139;51.284;7.226;2023-07-28T01:34:59;17.10;99.90
21950;DHT22;11139;51.284;7.226;2023-07-28T01:37:24;17.10;99.90
21950;DHT22;11139;51.284;7.226;2023-07-28T01:39:50;17.10;99.90
21950;DHT22;11139;51.284;7.226;2023-07-28T01:42:15;17.10;99.90
21950;DHT22;11139;51.284;7.226;2023-07-28T01:44:41;17.20;99.90
21950;DHT22;11139;51.284;7.226;2023-07-28T01:47:06;17.20;99.90
21950;DHT22;11139;51.284;7.226;2023-07-28T01:49:32;17.10;99.90
21950;DHT22;11139;51.284;7.226;2023-07-28T01:51:57;17.20;99.90
21950;DHT22;11139;51.284;7.226;2023-07-28T01:54:23;17.10;99.90
21950;DHT22;11139;51.284;7.226;2023-07-28T01:56:48;17.20;99.90
21950;DHT22;11139;51.284;7.226;2023-07-28T01:59:14;17.10;99.90
21950;DHT22;11139;51.284;7.226;2023-07-28T02:01:39;17.10;99.90
21950;DHT22;11139;51.284;7.226;2023-07-28T02:04:04;17.10;99.90
21950;DHT22;11139;51.284;7.226;2023-07-28T02:06:31;17.10;99.90
21950;DHT22;11139;51.284;7.226;2023-07-28T02:08:56;17.10;99.90
21950;DHT22;11139;51.284;7.226;2023-07-28T02:11:22;17.10;99.90
21950;DHT22;11139;51.284;7.226;2023-07-28T02:13:47;17.10;99.90
21950;DHT22;11139;51.284;7.226;2023-07-28T02:16:13;17.10;99.90
21950;DHT22;11139;51.284;7.226;2023-07-28T02:18:38;17.10;99.90
21950;DHT22;11139;51.284;7.226;2023-07-28T02:21:04;17.10;99.90
21950;DHT22;11139;51.284;7.226;2023-07-28T02:23:29;17.10;99.90
21950;DHT22;11139;51.284;7.226;2023-07-28T02:25:55;17.20;99.90
21950;DHT22;11139;51.284;7.226;2023-07-28T02:28:20;17.10;99.90
21950;DHT22;11139;51.284;7.226;2023-07-28T02:30:46;17.10;99.90
21950;DHT22;11139;51.284;7.226;2023-07-28T02:33:12;17.20;99.90
21950;DHT22;11139;51.284;7.226;2023-07-28T02:35:37;17.10;99.90
21950;DHT22;11139;51.284;7.226;2023-07-28T02:38:02;17.10;99.90
21950;DHT22;11139;51.284;7.226;2023-07-28T02:40:28;17.10;99.90
21950;DHT22;11139;51.284;7.226;2023-07-28T02:42:53;17.10;99.90
21950;DHT22;11139;51.284;7.226;2023-07-28T02:45:19;17.10;99.90
21950;DHT22;11139;51.284;7.226;2023-07-28T02:47:45;17.10;99.90
21950;DHT22;11139;51.284;7.226;2023-07-28T02:50:10;17.10;99.90
21950;DHT22;11139;51.284;7.226;2023-07-28T02:52:36;17.10;99.90
21950;DHT22;11139;51.284;7.226;2023-07-28T02:55:01;17.20;99.90
21950;DHT22;11139;51.284;7.226;2023-07-28T02:57:27;17.10;99.90
21950;DHT22;11139;51.284;7.226;2023-07-28T02:59:52;17.10;99.90
21950;DHT22;11139;51.284;7.226;2023-07-28T03:02:18;17.10;99.90
21950;DHT22;11139;51.284;7.226;2023-07-28T03:04:44;17.10;99.90
21950;DHT22;11139;51.284;7.226;2023-07-28T03:07:09;17.10;99.90
21950;DHT22;11139;51.284;7.226;2023-07-28T03:09:35;17.10;99.90
21950;DHT22;11139;51.284;7.226;2023-07-28T03:12:00;17.10;99.90
21950;DHT22;11139;51.284;7.226;2023-07-28T03:14:25;17.20;99.90
21950;DHT22;11139;51.284;7.226;2023-07-28T03:16:51;17.10;99.90
21950;DHT22;11139;51.284;7.226;2023-07-28T03:19:17;17.10;99.90
21950;DHT22;11139;51.284;7.226;2023-07-28T03:21:43;17.10;99.90
21950;DHT22;11139;51.284;7.226;2023-07-28T03:24:08;17.10;99.90
21950;DHT22;11139;51.284;7.226;2023-07-28T03:26:34;17.10;99.90
21950;DHT22;11139;51.284;7.226;2023-07-28T03:28:59;17.10;99.90
21950;DHT22;11139;51.284;7.226;2023-07-28T03:31:25;17.10;99.90
21950;DHT22;11139;51.284;7.226;2023-07-28T03:33:50;17.10;99.90
21950;DHT22;11139;51.284;7.226;2023-07-28T03:36:16;17.10;99.90
21950;DHT22;11139;51.284;7.226;2023-07-28T03:38:41;17.10;99.90
21950;DHT22;11139;51.284;7.226;2023-07-28T03:41:07;17.20;99.90
21950;DHT22;11139;51.284;7.226;2023-07-28T03:43:32;17.10;99.90
21950;DHT22;11139;51.284;7.226;2023-07-28T03:45:58;17.10;99.90
21950;DHT22;11139;51.284;7.226;2023-07-28T03:48:23;17.10;99.90
21950;DHT22;11139;51.284;7.226;2023-07-28T03:50:49;17.10;99.90
21950;DHT22;11139;51.284;7.226;2023-07-28T03:53:14;17.20;99.90
21950;DHT22;11139;51.284;7.226;2023-07-28T03:55:40;17.10;99.90
21950;DHT22;11139;51.284;7.226;2023-07-28T03:58:05;17.20;99.90
21950;DHT22;11139;51.284;7.226;2023-07-28T04:00:31;17.10;99.90
21950;DHT22;11139;51.284;7.226;2023-07-28T04:02:56;17.10;99.90
21950;DHT22;11139;51.284;7.226;2023-07-28T04:05:22;17.10;99.90
21950;DHT22;11139;51.284;7.226;2023-07-28T04:07:47;17.10;99.90
21950;DHT22;11139;51.284;7.226;2023-07-28T04:10:13;17.20;99.90
21950;DHT22;11139;51.284;7.226;2023-07-28T04:12:38;17.10;99.90
21950;DHT22;11139;51.284;7.226;2023-07-28T04:15:04;17.10;99.90
21950;DHT22;11139;51.284;7.226;2023-07-28T04:17:29;17.10;99.90
21950;DHT22;11139;51.284;7.226;2023-07-28T04:19:55;17.10;99.90
21950;DHT22;11139;51.284;7.226;2023-07-28T04:22:20;17.20;99.90
21950;DHT22;11139;51.284;7.226;2023-07-28T04:24:46;17.10;99.90
21950;DHT22;11139;51.284;7.226;2023-07-28T04:27:13;17.10;99.90
21950;DHT22;11139;51.284;7.226;2023-07-28T04:29:38;17.10;99.90
21950;DHT22;11139;51.284;7.226;2023-07-28T04:32:04;17.10;99.90
21950;DHT22;11139;51.284;7.226;2023-07-28T04:34:32;17.10;99.90
21950;DHT22;11139;51.284;7.226;2023-07-28T04:36:58;17.10;99.90
21950;DHT22;11139;51.284;7.226;2023-07-28T04:39:24;17.10;99.90
21950;DHT22;11139;51.284;7.226;2023-07-28T04:41:49;17.10;99.90
21950;DHT22;11139;51.284;7.226;2023-07-28T04:44:15;17.10;99.90
21950;DHT22;11139;51.284;7.226;2023-07-28T04:46:40;17.10;99.90
21950;DHT22;11139;51.284;7.226;2023-07-28T04:49:06;17.10;99.90
21950;DHT22;11139;51.284;7.226;2023-07-28T04:51:31;17.10;99.90
21950;DHT22;11139;51.284;7.226;2023-07-28T04:53:56;17.10;99.90
21950;DHT22;11139;51.284;7.226;2023-07-28T04:56:22;17.10;99.90
21950;DHT22;11139;51.284;7.226;2023-07-28T04:58:47;17.10;99.90
21950;DHT22;11139;51.284;7.226;2023-07-28T05:01:13;17.10;99.90
21950;DHT22;11139;51.284;7.226;2023-07-28T05:03:38;17.10;99.90
21950;DHT22;11139;51.284;7.226;2023-07-28T05:06:04;17.10;99.90
21950;DHT22;11139;51.284;7.226;2023-07-28T05:08:30;17.10;99.90
21950;DHT22;11139;51.284;7.226;2023-07-28T05:10:56;17.10;99.90
21950;DHT22;11139;51.284;7.226;2023-07-28T05:13:21;17.10;99.90
21950;DHT22;11139;51.284;7.226;2023-07-28T05:15:46;17.10;99.90
21950;DHT22;11139;51.284;7.226;2023-07-28T05:18:12;17.10;99.90
21950;DHT22;11139;51.284;7.226;2023-07-28T05:20:37;17.10;99.90
21950;DHT22;11139;51.284;7.226;2023-07-28T05:23:03;17.10;99.90
21950;DHT22;11139;51.284;7.226;2023-07-28T05:25:28;17.10;99.90
21950;DHT22;11139;51.284;7.226;2023-07-28T05:27:54;17.10;99.90
21950;DHT22;11139;51.284;7.226;2023-07-28T05:30:20;17.10;99.90
21950;DHT22;11139;51.284;7.226;2023-07-28T05:32:46;17.10;99.90
21950;DHT22;11139;51.284;7.226;2023-07-28T05:35:12;17.10;99.90
21950;DHT22;11139;51.284;7.226;2023-07-28T05:37:37;17.20;99.90
21950;DHT22;11139;51.284;7.226;2023-07-28T05:40:03;17.20;99.90
21950;DHT22;11139;51.284;7.226;2023-07-28T05:42:28;17.10;99.90
21950;DHT22;11139;51.284;7.226;2023-07-28T05:44:54;17.10;99.90
21950;DHT22;11139;51.284;7.226;2023-07-28T05:47:20;17.20;99.90
21950;DHT22;11139;51.284;7.226;2023-07-28T05:49:46;17.20;99.90
21950;DHT22;11139;51.284;7.226;2023-07-28T05:52:12;17.10;99.90
21950;DHT22;11139;51.284;7.226;2023-07-28T05:54:37;17.20;99.90
21950;DHT22;11139;51.284;7.226;2023-07-28T05:57:03;17.10;99.90
21950;DHT22;11139;51.284;7.226;2023-07-28T05:59:28;17.10;99.90
21950;DHT22;11139;51.284;7.226;2023-07-28T06:01:54;17.20;99.90
21950;DHT22;11139;51.284;7.226;2023-07-28T06:04:20;17.10;99.90
21950;DHT22;11139;51.284;7.226;2023-07-28T06:06:46;17.10;99.90
21950;DHT22;11139;51.284;7.226;2023-07-28T06:09:12;17.10;99.90
21950;DHT22;11139;51.284;7.226;2023-07-28T06:11:38;17.10;99.90
21950;DHT22;11139;51.284;7.226;2023-07-28T06:14:03;17.20;99.90
21950;DHT22;11139;51.284;7.226;2023-07-28T06:16:29;17.20;99.90
21950;DHT22;11139;51.284;7.226;2023-07-28T06:18:54;17.20;99.90
21950;DHT22;11139;51.284;7.226;2023-07-28T06:21:19;17.10;99.90
21950;DHT22;11139;51.284;7.226;2023-07-28T06:23:45;17.10;99.90
21950;DHT22;11139;51.284;7.226;2023-07-28T06:26:10;17.10;99.90
21950;DHT22;11139;51.284;7.226;2023-07-28T06:28:36;17.10;99.90
21950;DHT22;11139;51.284;7.226;2023-07-28T06:31:03;17.10;99.90
21950;DHT22;11139;51.284;7.226;2023-07-28T06:33:29;17.20;99.90
21950;DHT22;11139;51.284;7.226;2023-07-28T06:35:54;17.10;99.90
21950;DHT22;11139;51.284;7.226;2023-07-28T06:38:20;17.10;99.90
21950;DHT22;11139;51.284;7.226;2023-07-28T06:40:45;17.20;99.90
21950;DHT22;11139;51.284;7.226;2023-07-28T06:43:11;17.10;99.90
21950;DHT22;11139;51.284;7.226;2023-07-28T06:45:36;17.20;99.90
21950;DHT22;11139;51.284;7.226;2023-07-28T06:48:02;17.20;99.90
21950;DHT22;11139;51.284;7.226;2023-07-28T06:50:28;17.10;99.90
21950;DHT22;11139;51.284;7.226;2023-07-28T06:52:54;17.20;99.90
21950;DHT22;11139;51.284;7.226;2023-07-28T06:55:19;17.10;99.90
21950;DHT22;11139;51.284;7.226;2023-07-28T06:57:47;17.10;99.90
21950;DHT22;11139;51.284;7.226;2023-07-28T07:00:12;17.10;99.90
21950;DHT22;11139;51.284;7.226;2023-07-28T07:02:38;17.20;99.90
21950;DHT22;11139;51.284;7.226;2023-07-28T07:05:04;17.20;99.90
21950;DHT22;11139;51.284;7.226;2023-07-28T07:07:29;17.10;99.90
21950;DHT22;11139;51.284;7.226;2023-07-28T07:09:55;17.10;99.90
21950;DHT22;11139;51.284;7.226;2023-07-28T07:12:20;17.20;99.90
21950;DHT22;11139;51.284;7.226;2023-07-28T07:14:46;17.20;99.90
21950;DHT22;11139;51.284;7.226;2023-07-28T07:17:12;17.20;99.90
21950;DHT22;11139;51.284;7.226;2023-07-28T07:19:37;17.20;99.90
21950;DHT22;11139;51.284;7.226;2023-07-28T07:22:03;17.20;99.90
21950;DHT22;11139;51.284;7.226;2023-07-28T07:24:28;17.20;99.90
21950;DHT22;11139;51.284;7.226;2023-07-28T07:26:54;17.20;99.90
21950;DHT22;11139;51.284;7.226;2023-07-28T07:29:19;17.20;99.90
21950;DHT22;11139;51.284;7.226;2023-07-28T07:31:45;17.20;99.90
21950;DHT22;11139;51.284;7.226;2023-07-28T07:34:10;17.20;99.90
21950;DHT22;11139;51.284;7.226;2023-07-28T07:36:36;17.20;99.90
21950;DHT22;11139;51.284;7.226;2023-07-28T07:39:01;17.20;99.90
21950;DHT22;11139;51.284;7.226;2023-07-28T07:41:27;17.20;99.90
21950;DHT22;11139;51.284;7.226;2023-07-28T07:43:54;17.20;99.90
21950;DHT22;11139;51.284;7.226;2023-07-28T07:46:20;17.10;99.90
21950;DHT22;11139;51.284;7.226;2023-07-28T07:48:45;17.20;99.90
21950;DHT22;11139;51.284;7.226;2023-07-28T07:51:11;17.20;99.90
21950;DHT22;11139;51.284;7.226;2023-07-28T07:53:36;17.20;99.90
21950;DHT22;11139;51.284;7.226;2023-07-28T07:56:02;17.20;99.90
21950;DHT22;11139;51.284;7.226;2023-07-28T07:58:28;17.20;99.90
21950;DHT22;11139;51.284;7.226;2023-07-28T08:00:54;17.20;99.90
21950;DHT22;11139;51.284;7.226;2023-07-28T08:03:20;17.20;99.90
21950;DHT22;11139;51.284;7.226;2023-07-28T08:05:45;17.20;99.90
21950;DHT22;11139;51.284;7.226;2023-07-28T08:08:11;17.20;99.90
21950;DHT22;11139;51.284;7.226;2023-07-28T08:10:37;17.20;99.90
21950;DHT22;11139;51.284;7.226;2023-07-28T08:13:04;17.20;99.90
21950;DHT22;11139;51.284;7.226;2023-07-28T08:15:29;17.20;99.90
21950;DHT22;11139;51.284;7.226;2023-07-28T08:17:55;17.20;99.90
21950;DHT22;11139;51.284;7.226;2023-07-28T08:20:20;17.20;99.90
21950;DHT22;11139;51.284;7.226;2023-07-28T08:22:46;17.20;99.90
21950;DHT22;11139;51.284;7.226;2023-07-28T08:25:11;17.20;99.90
21950;DHT22;11139;51.284;7.226;2023-07-28T08:27:37;17.30;99.90
21950;DHT22;11139;51.284;7.226;2023-07-28T08:30:03;17.20;99.90
21950;DHT22;11139;51.284;7.226;2023-07-28T08:32:28;17.20;99.90
21950;DHT22;11139;51.284;7.226;2023-07-28T08:34:54;17.30;99.90
21950;DHT22;11139;51.284;7.226;2023-07-28T08:37:19;17.30;99.90
21950;DHT22;11139;51.284;7.226;2023-07-28T08:39:45;17.30;99.90
21950;DHT22;11139;51.284;7.226;2023-07-28T08:42:10;17.30;99.90
21950;DHT22;11139;51.284;7.226;2023-07-28T08:44:36;17.30;99.90
21950;DHT22;11139;51.284;7.226;2023-07-28T08:47:02;17.30;99.90
21950;DHT22;11139;51.284;7.226;2023-07-28T08:49:28;17.30;99.90
21950;DHT22;11139;51.284;7.226;2023-07-28T08:51:57;17.30;99.90
21950;DHT22;11139;51.284;7.226;2023-07-28T08:54:23;17.30;99.90
21950;DHT22;11139;51.284;7.226;2023-07-28T08:56:49;17.30;99.90
21950;DHT22;11139;51.284;7.226;2023-07-28T08:59:25;17.30;99.90
21950;DHT22;11139;51.284;7.226;2023-07-28T09:01:51;17.30;99.90
21950;DHT22;11139;51.284;7.226;2023-07-28T09:04:17;17.30;99.90
21950;DHT22;11139;51.284;7.226;2023-07-28T09:06:46;17.30;99.90
21950;DHT22;11139;51.284;7.226;2023-07-28T09:09:11;17.30;99.90
21950;DHT22;11139;51.284;7.226;2023-07-28T09:11:44;17.30;99.90
21950;DHT22;11139;51.284;7.226;2023-07-28T09:14:14;17.30;99.90
21950;DHT22;11139;51.284;7.226;2023-07-28T09:16:40;17.40;99.90
21950;DHT22;11139;51.284;7.226;2023-07-28T09:19:06;17.30;99.90
21950;DHT22;11139;51.284;7.226;2023-07-28T09:21:32;17.30;99.90
21950;DHT22;11139;51.284;7.226;2023-07-28T09:24:03;17.30;99.90
21950;DHT22;11139;51.284;7.226;2023-07-28T09:29:16;17.40;99.90
21950;DHT22;11139;51.284;7.226;2023-07-28T09:31:42;17.40;99.90
21950;DHT22;11139;51.284;7.226;2023-07-28T09:34:08;17.40;99.90
21950;DHT22;11139;51.284;7.226;2023-07-28T09:36:34;17.30;99.90
21950;DHT22;11139;51.284;7.226;2023-07-28T09:38:59;17.40;99.90
21950;DHT22;11139;51.284;7.226;2023-07-28T09:41:26;17.40;99.90
21950;DHT22;11139;51.284;7.226;2023-07-28T09:43:54;17.40;99.90
21950;DHT22;11139;51.284;7.226;2023-07-28T09:46:20;17.40;99.90
21950;DHT22;11139;51.284;7.226;2023-07-28T09:48:46;17.40;99.90
21950;DHT22;11139;51.284;7.226;2023-07-28T09:51:17;17.40;99.90
21950;DHT22;11139;51.284;7.226;2023-07-28T09:53:46;17.40;99.90
21950;DHT22;11139;51.284;7.226;2023-07-28T09:56:14;17.40;99.90
21950;DHT22;11139;51.284;7.226;2023-07-28T09:58:41;17.40;99.90
21950;DHT22;11139;51.284;7.226;2023-07-28T10:01:09;17.40;99.90
21950;DHT22;11139;51.284;7.226;2023-07-28T10:03:35;17.40;99.90
21950;DHT22;11139;51.284;7.226;2023-07-28T10:06:00;17.40;99.90
21950;DHT22;11139;51.284;7.226;2023-07-28T10:08:26;17.40;99.90
21950;DHT22;11139;51.284;7.226;2023-07-28T10:10:52;17.40;99.90
21950;DHT22;11139;51.284;7.226;2023-07-28T10:13:21;17.40;99.90
21950;DHT22;11139;51.284;7.226;2023-07-28T10:15:47;17.40;99.90
21950;DHT22;11139;51.284;7.226;2023-07-28T10:18:15;17.50;99.90
21950;DHT22;11139;51.284;7.226;2023-07-28T10:20:44;17.50;99.90
21950;DHT22;11139;51.284;7.226;2023-07-28T10:23:20;17.40;99.90
21950;DHT22;11139;51.284;7.226;2023-07-28T10:25:47;17.50;99.90
21950;DHT22;11139;51.284;7.226;2023-07-28T10:28:28;17.40;99.90
21950;DHT22;11139;51.284;7.226;2023-07-28T10:30:57;17.50;99.90
21950;DHT22;11139;51.284;7.226;2023-07-28T10:33:44;17.50;99.90
21950;DHT22;11139;51.284;7.226;2023-07-28T10:38:38;17.50;99.90
21950;DHT22;11139;51.284;7.226;2023-07-28T10:41:05;17.50;99.90
21950;DHT22;11139;51.284;7.226;2023-07-28T10:43:30;17.50;99.90
21950;DHT22;11139;51.284;7.226;2023-07-28T10:45:56;17.50;99.90
21950;DHT22;11139;51.284;7.226;2023-07-28T10:48:22;17.50;99.90
21950;DHT22;11139;51.284;7.226;2023-07-28T10:50:49;17.50;99.90
21950;DHT22;11139;51.284;7.226;2023-07-28T10:53:14;17.50;99.90
21950;DHT22;11139;51.284;7.226;2023-07-28T10:55:40;17.50;99.90
21950;DHT22;11139;51.284;7.226;2023-07-28T10:58:06;17.50;99.90
21950;DHT22;11139;51.284;7.226;2023-07-28T11:00:31;17.60;99.90
21950;DHT22;11139;51.284;7.226;2023-07-28T11:02:57;17.60;99.90
21950;DHT22;11139;51.284;7.226;2023-07-28T11:05:29;17.60;99.90
21950;DHT22;11139;51.284;7.226;2023-07-28T11:07:58;17.60;99.90
21950;DHT22;11139;51.284;7.226;2023-07-28T11:10:24;17.60;99.90
21950;DHT22;11139;51.284;7.226;2023-07-28T11:12:52;17.60;99.90
21950;DHT22;11139;51.284;7.226;2023-07-28T11:15:18;17.60;99.90
21950;DHT22;11139;51.284;7.226;2023-07-28T11:17:46;17.60;99.90
21950;DHT22;11139;51.284;7.226;2023-07-28T11:22:43;17.70;99.90
21950;DHT22;11139;51.284;7.226;2023-07-28T11:25:09;17.60;99.90
21950;DHT22;11139;51.284;7.226;2023-07-28T11:27:35;17.70;99.90
21950;DHT22;11139;51.284;7.226;2023-07-28T11:30:01;17.70;99.90
21950;DHT22;11139;51.284;7.226;2023-07-28T11:32:29;17.80;99.90
21950;DHT22;11139;51.284;7.226;2023-07-28T11:34:55;17.90;99.90
21950;DHT22;11139;51.284;7.226;2023-07-28T11:37:21;17.90;99.90
21950;DHT22;11139;51.284;7.226;2023-07-28T11:39:46;17.90;99.90
21950;DHT22;11139;51.284;7.226;2023-07-28T11:42:13;17.80;99.90
21950;DHT22;11139;51.284;7.226;2023-07-28T11:44:38;17.80;99.90
21950;DHT22;11139;51.284;7.226;2023-07-28T11:47:04;17.80;99.90
21950;DHT22;11139;51.284;7.226;2023-07-28T11:49:30;17.80;99.90
21950;DHT22;11139;51.284;7.226;2023-07-28T11:51:56;17.80;99.90
21950;DHT22;11139;51.284;7.226;2023-07-28T11:54:24;17.90;99.90
21950;DHT22;11139;51.284;7.226;2023-07-28T11:56:50;17.90;99.90
21950;DHT22;11139;51.284;7.226;2023-07-28T11:59:17;18.00;99.90
21950;DHT22;11139;51.284;7.226;2023-07-28T12:07:05;18.00;99.90
21950;DHT22;11139;51.284;7.226;2023-07-28T12:09:32;18.00;99.90
21950;DHT22;11139;51.284;7.226;2023-07-28T12:11:58;18.00;99.90
21950;DHT22;11139;51.284;7.226;2023-07-28T12:14:32;18.00;99.90
21950;DHT22;11139;51.284;7.226;2023-07-28T12:16:57;18.00;99.90
21950;DHT22;11139;51.284;7.226;2023-07-28T12:19:23;18.10;99.90
21950;DHT22;11139;51.284;7.226;2023-07-28T12:21:49;18.10;99.90
21950;DHT22;11139;51.284;7.226;2023-07-28T12:24:14;18.10;99.90
21950;DHT22;11139;51.284;7.226;2023-07-28T12:26:40;18.10;99.90
21950;DHT22;11139;51.284;7.226;2023-07-28T12:29:06;18.20;99.90
21950;DHT22;11139;51.284;7.226;2023-07-28T12:31:31;18.20;99.90
21950;DHT22;11139;51.284;7.226;2023-07-28T12:33:57;18.30;99.90
21950;DHT22;11139;51.284;7.226;2023-07-28T12:36:23;18.20;99.90
21950;DHT22;11139;51.284;7.226;2023-07-28T12:38:48;18.20;99.90
21950;DHT22;11139;51.284;7.226;2023-07-28T12:41:14;18.20;99.90
21950;DHT22;11139;51.284;7.226;2023-07-28T12:43:39;18.20;99.90
21950;DHT22;11139;51.284;7.226;2023-07-28T12:46:05;18.20;99.90
21950;DHT22;11139;51.284;7.226;2023-07-28T12:48:31;18.10;99.90
21950;DHT22;11139;51.284;7.226;2023-07-28T12:50:56;18.20;99.90
21950;DHT22;11139;51.284;7.226;2023-07-28T12:53:21;18.20;99.90
21950;DHT22;11139;51.284;7.226;2023-07-28T12:55:47;18.20;99.90
21950;DHT22;11139;51.284;7.226;2023-07-28T12:58:12;18.20;99.90
21950;DHT22;11139;51.284;7.226;2023-07-28T13:00:38;18.30;99.90
21950;DHT22;11139;51.284;7.226;2023-07-28T13:03:06;18.30;99.90
21950;DHT22;11139;51.284;7.226;2023-07-28T13:05:31;18.30;99.90
21950;DHT22;11139;51.284;7.226;2023-07-28T13:07:57;18.30;99.90
21950;DHT22;11139;51.284;7.226;2023-07-28T13:10:23;18.30;99.90
21950;DHT22;11139;51.284;7.226;2023-07-28T13:12:48;18.30;99.90
21950;DHT22;11139;51.284;7.226;2023-07-28T13:15:14;18.30;99.90
21950;DHT22;11139;51.284;7.226;2023-07-28T13:17:39;18.30;99.90
21950;DHT22;11139;51.284;7.226;2023-07-28T13:20:05;18.30;99.90
21950;DHT22;11139;51.284;7.226;2023-07-28T13:22:31;18.30;99.90
21950;DHT22;11139;51.284;7.226;2023-07-28T13:24:57;18.30;99.90
21950;DHT22;11139;51.284;7.226;2023-07-28T13:27:23;18.30;99.90
21950;DHT22;11139;51.284;7.226;2023-07-28T13:29:48;18.30;99.90
21950;DHT22;11139;51.284;7.226;2023-07-28T13:32:17;18.30;99.90
21950;DHT22;11139;51.284;7.226;2023-07-28T13:34:43;18.30;99.90
21950;DHT22;11139;51.284;7.226;2023-07-28T13:37:09;18.40;99.90
21950;DHT22;11139;51.284;7.226;2023-07-28T13:39:34;18.40;99.90
21950;DHT22;11139;51.284;7.226;2023-07-28T13:42:00;18.40;99.90
21950;DHT22;11139;51.284;7.226;2023-07-28T13:44:25;18.40;99.90
21950;DHT22;11139;51.284;7.226;2023-07-28T13:46:51;18.40;99.90
21950;DHT22;11139;51.284;7.226;2023-07-28T13:49:16;18.40;99.90
21950;DHT22;11139;51.284;7.226;2023-07-28T13:51:42;18.40;99.90
21950;DHT22;11139;51.284;7.226;2023-07-28T13:54:07;18.40;99.90
21950;DHT22;11139;51.284;7.226;2023-07-28T13:56:33;18.70;99.90
21950;DHT22;11139;51.284;7.226;2023-07-28T13:58:59;19.20;99.90
21950;DHT22;11139;51.284;7.226;2023-07-28T14:01:24;19.40;99.90
21950;DHT22;11139;51.284;7.226;2023-07-28T14:03:50;19.40;99.90
21950;DHT22;11139;51.284;7.226;2023-07-28T14:06:15;19.30;99.90
21950;DHT22;11139;51.284;7.226;2023-07-28T14:08:41;19.30;99.90
21950;DHT22;11139;51.284;7.226;2023-07-28T14:11:06;19.30;99.90
21950;DHT22;11139;51.284;7.226;2023-07-28T14:13:32;19.30;99.90
21950;DHT22;11139;51.284;7.226;2023-07-28T14:15:58;19.30;99.90
21950;DHT22;11139;51.284;7.226;2023-07-28T14:18:23;19.30;99.90
21950;DHT22;11139;51.284;7.226;2023-07-28T14:20:49;19.30;99.90
21950;DHT22;11139;51.284;7.226;2023-07-28T14:23:24;19.30;99.90
21950;DHT22;11139;51.284;7.226;2023-07-28T14:25:50;19.30;99.90
21950;DHT22;11139;51.284;7.226;2023-07-28T14:28:16;19.30;99.90
21950;DHT22;11139;51.284;7.226;2023-07-28T14:30:42;19.30;99.90
21950;DHT22;11139;51.284;7.226;2023-07-28T14:33:15;19.30;99.90
21950;DHT22;11139;51.284;7.226;2023-07-28T14:35:41;19.30;99.90
21950;DHT22;11139;51.284;7.226;2023-07-28T14:38:07;19.30;99.90
21950;DHT22;11139;51.284;7.226;2023-07-28T14:40:32;19.30;99.90
21950;DHT22;11139;51.284;7.226;2023-07-28T14:42:58;19.30;99.90
21950;DHT22;11139;51.284;7.226;2023-07-28T14:45:23;19.30;99.90
21950;DHT22;11139;51.284;7.226;2023-07-28T14:47:49;19.30;99.90
21950;DHT22;11139;51.284;7.226;2023-07-28T14:50:14;19.30;99.90
21950;DHT22;11139;51.284;7.226;2023-07-28T14:52:40;19.30;99.90
21950;DHT22;11139;51.284;7.226;2023-07-28T14:55:05;19.30;99.90
21950;DHT22;11139;51.284;7.226;2023-07-28T14:57:31;19.40;99.90
21950;DHT22;11139;51.284;7.226;2023-07-28T14:59:56;19.60;99.90
21950;DHT22;11139;51.284;7.226;2023-07-28T15:02:22;19.50;99.90
21950;DHT22;11139;51.284;7.226;2023-07-28T15:04:47;19.50;99.90
21950;DHT22;11139;51.284;7.226;2023-07-28T15:07:13;19.50;99.90
21950;DHT22;11139;51.284;7.226;2023-07-28T15:09:40;19.50;99.90
21950;DHT22;11139;51.284;7.226;2023-07-28T15:12:06;19.50;99.90
21950;DHT22;11139;51.284;7.226;2023-07-28T15:14:31;19.40;99.90
21950;DHT22;11139;51.284;7.226;2023-07-28T15:16:57;19.40;99.90
21950;DHT22;11139;51.284;7.226;2023-07-28T15:19:22;19.40;99.90
21950;DHT22;11139;51.284;7.226;2023-07-28T15:21:48;19.40;99.90
21950;DHT22;11139;51.284;7.226;2023-07-28T15:24:13;19.40;99.90
21950;DHT22;11139;51.284;7.226;2023-07-28T15:26:39;19.40;99.90
21950;DHT22;11139;51.284;7.226;2023-07-28T15:29:05;19.40;99.90
21950;DHT22;11139;51.284;7.226;2023-07-28T15:31:30;19.30;99.90
21950;DHT22;11139;51.284;7.226;2023-07-28T15:33:56;19.30;99.90
21950;DHT22;11139;51.284;7.226;2023-07-28T15:36:21;19.30;99.90
21950;DHT22;11139;51.284;7.226;2023-07-28T15:38:47;19.30;99.90
21950;DHT22;11139;51.284;7.226;2023-07-28T15:41:12;19.30;99.90
21950;DHT22;11139;51.284;7.226;2023-07-28T15:43:38;19.40;99.90